Time;durP1;ratioP1;P1;durP2;ratioP2;P2;SDS_P1;SDS_P2;PMS_P1;PMS_P2;Temp;Humidity;BMP_temperature;BMP_pressure;BME280_temperature;BME280_humidity;BME280_pressure;Samples;Min_cycle;Max_cycle;Signal;HPM_P1;HPM_P2
2023/06/05 00:02:07;;;;;;;;;;;20.70;47.10;;;;;;10367481;28;882;-70
2023/06/05 00:07:02;;;;;;;;;;;20.70;47.20;;;;;;10366723;28;1970;-70
2023/06/05 00:11:58;;;;;;;;;;;20.70;47.20;;;;;;10366621;28;839;-70
2023/06/05 00:16:53;;;;;;;;;;;20.70;47.20;;;;;;10367181;28;871;-70
2023/06/05 00:21:50;;;;;;;;;;;20.70;47.20;;;;;;10367111;28;857;-70
2023/06/05 00:26:46;;;;;;;;;;;20.70;47.30;;;;;;10374472;28;1957;-70
2023/06/05 00:31:42;;;;;;;;;;;20.70;47.30;;;;;;10374837;28;876;-70
2023/06/05 00:36:40;;;;;;;;;;;20.70;47.30;;;;;;10374275;28;1103;-70
2023/06/05 00:41:35;;;;;;;;;;;20.70;47.30;;;;;;10374438;28;946;-70
2023/06/05 00:46:31;;;;;;;;;;;20.70;47.30;;;;;;10374263;28;1902;-70
2023/06/05 00:51:26;;;;;;;;;;;20.70;47.30;;;;;;10374747;28;861;-70
2023/06/05 00:56:22;;;;;;;;;;;20.60;47.30;;;;;;10373815;28;977;-70
2023/06/05 01:01:17;;;;;;;;;;;20.60;47.30;;;;;;10374005;28;879;-70
2023/06/05 01:06:13;;;;;;;;;;;20.70;47.40;;;;;;10374265;28;1957;-70
2023/06/05 01:11:08;;;;;;;;;;;20.60;47.40;;;;;;10373359;28;884;-70
2023/06/05 01:16:04;;;;;;;;;;;20.60;47.40;;;;;;10374028;28;769;-71
2023/06/05 01:21:01;;;;;;;;;;;20.60;47.40;;;;;;10374522;28;941;-71
2023/06/05 01:25:56;;;;;;;;;;;20.60;47.40;;;;;;10373731;28;1949;-70
2023/06/05 01:30:52;;;;;;;;;;;20.60;47.50;;;;;;10372882;28;817;-70
2023/06/05 01:35:51;;;;;;;;;;;20.60;47.50;;;;;;10371900;28;1324;-70
2023/06/05 01:40:46;;;;;;;;;;;20.60;47.50;;;;;;10372757;28;852;-70
2023/06/05 01:45:42;;;;;;;;;;;20.60;47.50;;;;;;10372733;28;1909;-70
2023/06/05 01:50:37;;;;;;;;;;;20.60;47.50;;;;;;10372412;28;940;-70
2023/06/05 01:55:33;;;;;;;;;;;20.60;47.50;;;;;;10371591;28;823;-70
2023/06/05 02:00:29;;;;;;;;;;;20.60;47.70;;;;;;10372042;28;801;-70
2023/06/05 02:05:24;;;;;;;;;;;20.60;47.50;;;;;;10371866;28;1959;-70
2023/06/05 02:10:19;;;;;;;;;;;20.60;47.60;;;;;;10370540;28;939;-70
2023/06/05 02:15:15;;;;;;;;;;;20.60;47.60;;;;;;10372107;28;777;-70
2023/06/05 02:20:11;;;;;;;;;;;20.60;47.60;;;;;;10370966;28;853;-70
2023/06/05 02:25:07;;;;;;;;;;;20.60;47.60;;;;;;10369779;28;1909;-70
2023/06/05 02:30:02;;;;;;;;;;;20.60;47.60;;;;;;10370331;28;814;-70
2023/06/05 02:34:58;;;;;;;;;;;20.60;47.60;;;;;;10370296;28;1116;-70
2023/06/05 02:39:53;;;;;;;;;;;20.60;47.70;;;;;;10369956;28;913;-70
2023/06/05 02:44:48;;;;;;;;;;;20.60;47.60;;;;;;10371052;28;1905;-70
2023/06/05 02:49:44;;;;;;;;;;;20.60;47.60;;;;;;10369541;28;872;-70
2023/06/05 02:54:39;;;;;;;;;;;20.60;47.70;;;;;;10369930;28;845;-70
2023/06/05 02:59:39;;;;;;;;;;;20.60;47.70;;;;;;10370595;28;770;-70
2023/06/05 03:04:34;;;;;;;;;;;20.60;47.70;;;;;;10368862;28;903;-70
2023/06/05 03:09:30;;;;;;;;;;;20.60;47.70;;;;;;10368687;28;1906;-70
2023/06/05 03:14:30;;;;;;;;;;;20.60;47.70;;;;;;10369044;28;976;-70
2023/06/05 03:19:26;;;;;;;;;;;20.60;47.70;;;;;;10368383;28;870;-70
2023/06/05 03:24:24;;;;;;;;;;;20.60;47.80;;;;;;10367979;28;978;-71
2023/06/05 03:29:20;;;;;;;;;;;20.60;47.80;;;;;;10367835;28;1910;-70
2023/06/05 03:34:16;;;;;;;;;;;20.60;47.50;;;;;;10368674;28;1092;-70
2023/06/05 03:39:11;;;;;;;;;;;20.60;47.70;;;;;;10367353;28;804;-70
2023/06/05 03:44:08;;;;;;;;;;;20.60;47.70;;;;;;10367545;28;874;-70
2023/06/05 03:49:08;;;;;;;;;;;20.60;47.60;;;;;;10367211;28;1922;-70
2023/06/05 03:54:05;;;;;;;;;;;20.60;47.60;;;;;;10367703;28;1727;-70
2023/06/05 03:59:18;;;;;;;;;;;20.50;47.50;;;;;;10366580;28;757;-70
2023/06/05 04:04:14;;;;;;;;;;;20.50;47.60;;;;;;10366783;28;1464;-70
2023/06/05 04:09:12;;;;;;;;;;;20.50;47.70;;;;;;10366720;28;1910;-70
2023/06/05 04:14:08;;;;;;;;;;;20.50;47.60;;;;;;10367260;28;867;-70
2023/06/05 04:19:03;;;;;;;;;;;20.60;47.70;;;;;;10366366;28;915;-70
2023/06/05 04:23:59;;;;;;;;;;;20.50;47.60;;;;;;10367306;28;1313;-71
2023/06/05 04:28:56;;;;;;;;;;;20.60;47.70;;;;;;10365249;28;1961;-71
2023/06/05 04:33:51;;;;;;;;;;;20.50;47.70;;;;;;10366503;28;1482;-71
2023/06/05 04:38:47;;;;;;;;;;;20.60;47.80;;;;;;10366243;28;1726;-70
2023/06/05 04:43:42;;;;;;;;;;;20.60;47.80;;;;;;10366757;28;849;-70
2023/06/05 04:48:38;;;;;;;;;;;20.60;47.70;;;;;;10365936;28;1914;-70
2023/06/05 04:53:33;;;;;;;;;;;20.60;47.70;;;;;;10365896;28;805;-70
2023/06/05 04:58:28;;;;;;;;;;;20.60;47.70;;;;;;10366417;28;833;-70
2023/06/05 05:03:24;;;;;;;;;;;20.60;47.70;;;;;;10366478;28;944;-70
2023/06/05 05:08:20;;;;;;;;;;;20.60;47.70;;;;;;10365892;28;1971;-70
2023/06/05 05:13:15;;;;;;;;;;;20.60;47.70;;;;;;10373272;28;863;-68
2023/06/05 05:18:10;;;;;;;;;;;20.70;47.80;;;;;;10373156;28;921;-69
2023/06/05 05:23:07;;;;;;;;;;;20.70;47.70;;;;;;10373026;28;749;-69
2023/06/05 05:28:03;;;;;;;;;;;20.60;47.80;;;;;;10372607;28;1898;-69
2023/06/05 05:32:58;;;;;;;;;;;20.60;47.80;;;;;;10372501;28;952;-69
2023/06/05 05:37:54;;;;;;;;;;;20.70;47.90;;;;;;10372823;28;1152;-69
2023/06/05 05:42:50;;;;;;;;;;;20.70;47.90;;;;;;10371714;28;1143;-69
2023/06/05 05:47:45;;;;;;;;;;;20.70;47.90;;;;;;10371895;28;1906;-69
2023/06/05 05:52:42;;;;;;;;;;;20.70;47.90;;;;;;10371872;28;781;-69
2023/06/05 05:57:38;;;;;;;;;;;20.70;47.90;;;;;;10371599;28;981;-69
2023/06/05 06:02:34;;;;;;;;;;;20.70;48.00;;;;;;10371388;28;896;-69
2023/06/05 06:07:29;;;;;;;;;;;20.70;48.00;;;;;;10370980;28;2022;-70
2023/06/05 06:12:25;;;;;;;;;;;20.70;48.10;;;;;;10371351;28;826;-69
2023/06/05 06:17:20;;;;;;;;;;;20.70;48.20;;;;;;10372179;28;888;-69
2023/06/05 06:22:16;;;;;;;;;;;20.70;48.20;;;;;;10370047;28;1253;-69
2023/06/05 06:27:12;;;;;;;;;;;20.70;48.70;;;;;;10369586;28;1906;-69
2023/06/05 06:32:07;;;;;;;;;;;20.70;48.20;;;;;;10370226;28;846;-70
2023/06/05 06:37:03;;;;;;;;;;;20.70;48.20;;;;;;10369877;28;1279;-69
2023/06/05 06:41:58;;;;;;;;;;;20.70;48.30;;;;;;10369294;28;984;-69
2023/06/05 06:46:54;;;;;;;;;;;20.70;48.30;;;;;;10369988;28;2015;-69
2023/06/05 06:51:49;;;;;;;;;;;20.80;48.40;;;;;;10369436;28;766;-69
2023/06/05 06:56:45;;;;;;;;;;;20.70;48.30;;;;;;10369296;28;796;-69
2023/06/05 07:01:40;;;;;;;;;;;20.70;48.40;;;;;;10369571;28;829;-69
2023/06/05 07:06:36;;;;;;;;;;;20.70;48.40;;;;;;10368237;28;1951;-69
2023/06/05 07:11:31;;;;;;;;;;;20.80;48.50;;;;;;10369184;28;786;-70
2023/06/05 07:16:26;;;;;;;;;;;20.80;48.50;;;;;;10368731;28;857;-70
2023/06/05 07:21:22;;;;;;;;;;;20.70;48.50;;;;;;10368675;28;854;-70
2023/06/05 07:26:17;;;;;;;;;;;20.80;48.60;;;;;;10368429;28;1953;-70
2023/06/05 07:31:12;;;;;;;;;;;20.70;48.50;;;;;;10368178;28;769;-69
2023/06/05 07:36:10;;;;;;;;;;;20.70;48.60;;;;;;10367073;28;1187;-71
2023/06/05 07:41:05;;;;;;;;;;;20.70;48.60;;;;;;10368906;28;871;-69
2023/06/05 07:46:01;;;;;;;;;;;20.80;48.70;;;;;;10367449;28;1969;-74
2023/06/05 07:50:56;;;;;;;;;;;20.80;48.90;;;;;;10368042;28;809;-72
2023/06/05 07:55:52;;;;;;;;;;;20.80;49.80;;;;;;10367833;28;842;-74
2023/06/05 08:00:47;;;;;;;;;;;20.80;49.50;;;;;;10367063;28;793;-74
2023/06/05 08:05:43;;;;;;;;;;;20.80;49.40;;;;;;10367331;28;1961;-74
2023/06/05 08:10:39;;;;;;;;;;;20.80;49.20;;;;;;10366665;28;1142;-74
2023/06/05 08:15:34;;;;;;;;;;;20.80;49.20;;;;;;10367356;28;810;-74
2023/06/05 08:20:29;;;;;;;;;;;20.80;49.20;;;;;;10367158;28;817;-74
2023/06/05 08:25:25;;;;;;;;;;;20.80;49.10;;;;;;10366964;28;1902;-73
2023/06/05 08:30:20;;;;;;;;;;;20.80;49.10;;;;;;10366365;28;787;-74
2023/06/05 08:35:16;;;;;;;;;;;20.80;49.10;;;;;;10366485;28;1875;-74
2023/06/05 08:40:11;;;;;;;;;;;20.80;49.10;;;;;;10363521;28;999;-74
2023/06/05 08:45:07;;;;;;;;;;;20.80;49.10;;;;;;10369314;28;1976;-72
2023/06/05 08:50:03;;;;;;;;;;;20.80;49.20;;;;;;10374199;28;840;-73
2023/06/05 08:54:58;;;;;;;;;;;20.80;49.20;;;;;;10374030;28;786;-72
2023/06/05 08:59:54;;;;;;;;;;;20.80;49.10;;;;;;10373426;28;776;-72
2023/06/05 09:04:49;;;;;;;;;;;20.80;49.10;;;;;;10374301;28;839;-72
2023/06/05 09:09:45;;;;;;;;;;;20.80;49.20;;;;;;10372997;28;1897;-71
2023/06/05 09:14:40;;;;;;;;;;;20.80;49.20;;;;;;10373216;28;953;-72
2023/06/05 09:19:36;;;;;;;;;;;20.80;49.10;;;;;;10372574;28;957;-73
2023/06/05 09:24:31;;;;;;;;;;;20.80;49.20;;;;;;10367219;28;1106;-72
2023/06/05 09:29:26;;;;;;;;;;;20.80;49.20;;;;;;10366358;28;1951;-72
2023/06/05 09:34:22;;;;;;;;;;;20.70;49.20;;;;;;10372345;28;1080;-72
2023/06/05 09:39:18;;;;;;;;;;;20.70;49.10;;;;;;10372485;28;874;-73
2023/06/05 09:44:13;;;;;;;;;;;20.80;49.30;;;;;;10372130;28;823;-72
2023/06/05 09:49:09;;;;;;;;;;;20.70;49.20;;;;;;10371294;28;1910;-72
2023/06/05 09:54:04;;;;;;;;;;;20.70;49.30;;;;;;10371525;28;841;-72
2023/06/05 09:59:00;;;;;;;;;;;20.70;49.30;;;;;;10370026;28;943;-72
2023/06/05 10:03:56;;;;;;;;;;;20.70;49.30;;;;;;10371188;28;837;-72
2023/06/05 10:08:52;;;;;;;;;;;20.70;49.40;;;;;;10362611;28;1947;-71
2023/06/05 10:13:49;;;;;;;;;;;20.60;49.30;;;;;;10330118;28;906;-70
2023/06/05 10:18:44;;;;;;;;;;;20.60;49.30;;;;;;10329165;28;894;-70
2023/06/05 10:23:39;;;;;;;;;;;20.60;49.50;;;;;;10329496;28;789;-70
2023/06/05 10:28:35;;;;;;;;;;;20.60;49.60;;;;;;10328977;28;1898;-70
2023/06/05 10:33:30;;;;;;;;;;;20.60;49.70;;;;;;10328635;28;817;-70
2023/06/05 10:38:26;;;;;;;;;;;20.60;49.70;;;;;;10328272;28;1282;-70
2023/06/05 10:43:21;;;;;;;;;;;20.60;49.70;;;;;;10327578;28;900;-70
2023/06/05 10:48:17;;;;;;;;;;;20.60;49.70;;;;;;10328566;28;1910;-69
2023/06/05 10:53:13;;;;;;;;;;;20.60;49.80;;;;;;10327705;28;870;-70
2023/06/05 10:58:09;;;;;;;;;;;20.60;49.80;;;;;;10352797;28;1106;-70
2023/06/05 11:03:05;;;;;;;;;;;20.60;49.90;;;;;;10368602;28;1003;-70
2023/06/05 11:08:01;;;;;;;;;;;20.60;49.80;;;;;;10368405;28;1901;-70
2023/06/05 11:12:56;;;;;;;;;;;20.60;49.80;;;;;;10368192;28;838;-71
2023/06/05 11:17:52;;;;;;;;;;;20.60;49.70;;;;;;10368354;28;878;-68
2023/06/05 11:22:47;;;;;;;;;;;20.60;49.80;;;;;;10367807;28;958;-68
2023/06/05 11:27:43;;;;;;;;;;;20.70;49.90;;;;;;10367491;28;1898;-69
2023/06/05 11:32:38;;;;;;;;;;;20.70;49.80;;;;;;10367569;28;930;-69
2023/06/05 11:37:34;;;;;;;;;;;20.70;49.90;;;;;;10368459;28;1159;-69
2023/06/05 11:42:29;;;;;;;;;;;20.70;50.50;;;;;;10367859;28;931;-69
2023/06/05 11:47:25;;;;;;;;;;;20.70;49.90;;;;;;10368035;28;1910;-70
2023/06/05 11:52:23;;;;;;;;;;;20.70;49.90;;;;;;10367936;28;838;-69
2023/06/05 11:57:18;;;;;;;;;;;20.70;50.00;;;;;;10366565;28;881;-69
2023/06/05 12:02:14;;;;;;;;;;;20.80;50.20;;;;;;10366942;28;870;-69
2023/06/05 12:07:09;;;;;;;;;;;20.70;50.40;;;;;;10366828;28;1901;-69
2023/06/05 12:12:06;;;;;;;;;;;20.70;50.40;;;;;;10366662;28;872;-68
2023/06/05 12:17:03;;;;;;;;;;;20.70;50.50;;;;;;10367341;28;870;-68
2023/06/05 12:21:58;;;;;;;;;;;20.70;50.20;;;;;;10365962;28;854;-68
2023/06/05 12:26:54;;;;;;;;;;;20.70;50.20;;;;;;10366372;28;1894;-68
2023/06/05 12:31:49;;;;;;;;;;;20.70;50.00;;;;;;10366265;28;862;-69
2023/06/05 12:36:47;;;;;;;;;;;20.70;50.00;;;;;;10365945;28;1373;-69
2023/06/05 12:41:44;;;;;;;;;;;20.70;49.80;;;;;;10366792;28;792;-69
2023/06/05 12:46:40;;;;;;;;;;;20.70;49.40;;;;;;10366361;28;1914;-69
2023/06/05 12:51:35;;;;;;;;;;;20.70;49.40;;;;;;10366627;28;950;-68
2023/06/05 12:56:34;;;;;;;;;;;20.70;49.20;;;;;;10365868;28;894;-70
2023/06/05 13:01:31;;;;;;;;;;;20.70;49.20;;;;;;10365723;28;785;-69
2023/06/05 13:06:27;;;;;;;;;;;20.70;49.30;;;;;;10366124;28;1963;-69
2023/06/05 13:11:23;;;;;;;;;;;20.70;49.20;;;;;;10366470;28;855;-69
2023/06/05 13:16:18;;;;;;;;;;;20.70;49.20;;;;;;10366167;28;802;-68
2023/06/05 13:21:13;;;;;;;;;;;20.70;49.30;;;;;;10365432;28;874;-68
2023/06/05 13:26:09;;;;;;;;;;;20.70;49.30;;;;;;10365481;28;1897;-69
2023/06/05 13:31:05;;;;;;;;;;;20.70;49.30;;;;;;10367362;28;886;-69
2023/06/05 13:36:01;;;;;;;;;;;20.70;49.30;;;;;;10372775;28;1124;-69
2023/06/05 13:40:56;;;;;;;;;;;20.70;49.20;;;;;;10372336;28;810;-69
2023/06/05 13:45:52;;;;;;;;;;;20.70;49.20;;;;;;10372241;28;1913;-69
2023/06/05 13:50:47;;;;;;;;;;;20.70;49.20;;;;;;10371392;28;851;-69
2023/06/05 13:55:42;;;;;;;;;;;20.70;49.10;;;;;;10371807;28;806;-69
2023/06/05 14:00:38;;;;;;;;;;;20.80;49.10;;;;;;10371618;28;945;-69
2023/06/05 14:05:33;;;;;;;;;;;20.70;48.70;;;;;;10353686;28;1902;-69
2023/06/05 14:10:29;;;;;;;;;;;20.80;48.70;;;;;;10371177;28;840;-68
2023/06/05 14:15:24;;;;;;;;;;;20.80;48.70;;;;;;10347025;28;1128;-69
2023/06/05 14:20:20;;;;;;;;;;;20.90;48.70;;;;;;10329645;28;850;-69
2023/06/05 14:25:15;;;;;;;;;;;20.90;48.50;;;;;;10328777;28;1965;-69
2023/06/05 14:30:11;;;;;;;;;;;20.90;48.40;;;;;;10329264;28;794;-69
2023/06/05 14:35:06;;;;;;;;;;;20.90;48.30;;;;;;10329232;28;1109;-69
2023/06/05 14:40:02;;;;;;;;;;;21.00;48.30;;;;;;10328867;28;962;-69
2023/06/05 14:44:57;;;;;;;;;;;21.00;48.10;;;;;;10328985;28;854;-69
2023/06/05 14:49:52;;;;;;;;;;;21.00;47.80;;;;;;10328372;28;1906;-72
2023/06/05 14:54:48;;;;;;;;;;;21.00;47.80;;;;;;10328870;28;810;-69
2023/06/05 14:59:43;;;;;;;;;;;21.10;47.80;;;;;;10328030;28;766;-69
2023/06/05 15:04:38;;;;;;;;;;;21.10;47.80;;;;;;10326656;28;987;-69
2023/06/05 15:09:34;;;;;;;;;;;21.20;48.00;;;;;;10327555;28;1906;-69
2023/06/05 15:14:30;;;;;;;;;;;21.20;48.00;;;;;;10327464;28;789;-69
2023/06/05 15:19:25;;;;;;;;;;;21.20;48.20;;;;;;10327275;28;845;-69
2023/06/05 15:24:20;;;;;;;;;;;21.30;48.20;;;;;;10326500;28;829;-69
2023/06/05 15:29:16;;;;;;;;;;;21.40;48.30;;;;;;10326801;28;1961;-68
2023/06/05 15:34:11;;;;;;;;;;;21.40;48.20;;;;;;10325893;28;1281;-69
2023/06/05 15:39:06;;;;;;;;;;;21.50;48.20;;;;;;10326969;28;981;-68
2023/06/05 15:44:02;;;;;;;;;;;21.50;48.30;;;;;;10326345;28;946;-69
2023/06/05 15:48:57;;;;;;;;;;;21.60;48.40;;;;;;10327087;28;1914;-69
2023/06/05 15:53:53;;;;;;;;;;;21.60;48.30;;;;;;10325975;28;806;-69
2023/06/05 15:58:48;;;;;;;;;;;21.70;48.40;;;;;;10325985;28;779;-69
2023/06/05 16:03:44;;;;;;;;;;;21.70;48.40;;;;;;10338410;28;960;-69
2023/06/05 16:08:39;;;;;;;;;;;21.70;48.50;;;;;;10366789;28;1975;-69
2023/06/05 16:13:34;;;;;;;;;;;21.80;48.60;;;;;;10365933;28;1097;-69
2023/06/05 16:18:30;;;;;;;;;;;21.80;48.70;;;;;;10365909;28;900;-69
2023/06/05 16:23:25;;;;;;;;;;;21.80;48.70;;;;;;10366269;28;885;-69
2023/06/05 16:28:21;;;;;;;;;;;21.80;48.60;;;;;;10358267;28;1914;-69
2023/06/05 16:33:16;;;;;;;;;;;21.90;48.70;;;;;;10323900;28;953;-69
2023/06/05 16:38:12;;;;;;;;;;;21.90;48.70;;;;;;10325418;28;1448;-69
2023/06/05 16:43:07;;;;;;;;;;;21.90;48.60;;;;;;10324112;28;898;-69
2023/06/05 16:48:03;;;;;;;;;;;21.90;48.60;;;;;;10324743;28;1918;-69
2023/06/05 16:52:58;;;;;;;;;;;21.90;48.70;;;;;;10324209;28;754;-69
2023/06/05 16:57:54;;;;;;;;;;;21.80;48.80;;;;;;10324850;28;807;-69
2023/06/05 17:02:49;;;;;;;;;;;21.70;49.00;;;;;;10324346;28;967;-69
2023/06/05 17:07:45;;;;;;;;;;;21.60;49.10;;;;;;10330306;28;1902;-70
2023/06/05 17:12:44;;;;;;;;;;;21.60;49.20;;;;;;10332266;28;790;-69
2023/06/05 17:17:40;;;;;;;;;;;21.60;49.30;;;;;;10332394;28;822;-69
2023/06/05 17:22:35;;;;;;;;;;;21.60;49.40;;;;;;10330721;28;953;-69
2023/06/05 17:27:30;;;;;;;;;;;21.50;49.40;;;;;;10331597;28;1906;-69
2023/06/05 17:32:26;;;;;;;;;;;21.50;49.50;;;;;;10333527;28;1162;-69
2023/06/05 17:37:21;;;;;;;;;;;21.50;49.50;;;;;;10372421;28;1535;-70
2023/06/05 17:42:17;;;;;;;;;;;21.50;49.50;;;;;;10372503;28;812;-69
2023/06/05 17:47:13;;;;;;;;;;;21.50;49.60;;;;;;10372027;28;1957;-69
2023/06/05 17:52:08;;;;;;;;;;;21.50;49.70;;;;;;10371930;28;852;-70
2023/06/05 17:57:04;;;;;;;;;;;21.50;49.70;;;;;;10372300;28;872;-69
2023/06/05 18:01:59;;;;;;;;;;;21.50;49.60;;;;;;10370711;28;1239;-74
2023/06/05 18:06:54;;;;;;;;;;;21.50;49.70;;;;;;10371084;28;1898;-74
2023/06/05 18:11:50;;;;;;;;;;;21.50;49.50;;;;;;10370725;28;772;-74
2023/06/05 18:16:45;;;;;;;;;;;21.60;49.30;;;;;;10370431;28;830;-73
2023/06/05 18:21:41;;;;;;;;;;;21.70;49.20;;;;;;10370383;28;880;-73
2023/06/05 18:26:36;;;;;;;;;;;21.80;49.10;;;;;;10370916;28;1905;-73
2023/06/05 18:31:31;;;;;;;;;;;21.80;49.00;;;;;;10370019;28;786;-74
2023/06/05 18:36:27;;;;;;;;;;;21.80;49.00;;;;;;10370264;28;1183;-73
2023/06/05 18:41:22;;;;;;;;;;;21.80;49.00;;;;;;10369008;28;900;-74
2023/06/05 18:46:18;;;;;;;;;;;21.80;49.00;;;;;;10369717;28;1979;-73
2023/06/05 18:51:13;;;;;;;;;;;21.80;48.90;;;;;;10369270;28;953;-73
2023/06/05 18:56:08;;;;;;;;;;;21.80;49.00;;;;;;10369890;28;868;-72
2023/06/05 19:01:04;;;;;;;;;;;21.80;49.00;;;;;;10368859;28;858;-73
2023/06/05 19:05:59;;;;;;;;;;;21.80;49.10;;;;;;10368907;28;1909;-72
2023/06/05 19:10:55;;;;;;;;;;;21.80;49.10;;;;;;10368644;28;763;-72
2023/06/05 19:15:50;;;;;;;;;;;21.80;49.20;;;;;;10369023;28;831;-72
2023/06/05 19:20:46;;;;;;;;;;;21.70;49.10;;;;;;10368203;28;969;-71
2023/06/05 19:25:41;;;;;;;;;;;21.70;49.20;;;;;;10367436;28;1957;-73
2023/06/05 19:30:36;;;;;;;;;;;21.70;49.20;;;;;;10367349;28;1185;-73
2023/06/05 19:35:32;;;;;;;;;;;21.70;49.30;;;;;;10367290;28;1434;-73
2023/06/05 19:40:27;;;;;;;;;;;21.70;49.30;;;;;;10368150;28;781;-73
2023/06/05 19:45:22;;;;;;;;;;;21.60;49.30;;;;;;10366256;28;1910;-73
2023/06/05 19:50:20;;;;;;;;;;;21.60;49.20;;;;;;10367465;28;746;-73
2023/06/05 19:55:17;;;;;;;;;;;21.60;49.20;;;;;;10367235;28;997;-73
2023/06/05 20:00:13;;;;;;;;;;;21.60;49.30;;;;;;10367610;28;936;-73
2023/06/05 20:05:08;;;;;;;;;;;21.60;49.30;;;;;;10367105;28;864;-68
2023/06/05 20:10:04;;;;;;;;;;;21.60;49.30;;;;;;10366775;28;1909;-73
2023/06/05 20:14:59;;;;;;;;;;;21.60;49.30;;;;;;10366689;28;1004;-72
2023/06/05 20:19:55;;;;;;;;;;;21.60;49.40;;;;;;10367441;28;858;-74
2023/06/05 20:24:53;;;;;;;;;;;21.60;49.30;;;;;;10365101;28;1086;-74
2023/06/05 20:29:48;;;;;;;;;;;21.60;49.40;;;;;;10366374;28;1965;-74
2023/06/05 20:34:45;;;;;;;;;;;21.60;49.40;;;;;;10366270;28;1363;-74
2023/06/05 20:39:45;;;;;;;;;;;21.60;49.40;;;;;;10367012;28;902;-73
2023/06/05 20:44:41;;;;;;;;;;;21.50;49.40;;;;;;10375604;28;782;-73
2023/06/05 20:49:39;;;;;;;;;;;21.50;49.40;;;;;;10373630;28;1917;-73
2023/06/05 20:54:34;;;;;;;;;;;21.60;49.40;;;;;;10374194;28;881;-74
2023/06/05 20:59:30;;;;;;;;;;;21.50;49.40;;;;;;10374467;28;766;-73
2023/06/05 21:04:25;;;;;;;;;;;21.50;49.40;;;;;;10374121;28;822;-73
2023/06/05 21:09:21;;;;;;;;;;;21.50;49.40;;;;;;10374035;28;1910;-73
2023/06/05 21:14:16;;;;;;;;;;;21.50;49.40;;;;;;10372851;28;849;-73
2023/06/05 21:19:11;;;;;;;;;;;21.50;49.50;;;;;;10373055;28;917;-73
2023/06/05 21:24:07;;;;;;;;;;;21.50;49.50;;;;;;10374393;28;845;-73
2023/06/05 21:29:02;;;;;;;;;;;21.50;49.50;;;;;;10372049;28;1959;-73
2023/06/05 21:33:57;;;;;;;;;;;21.50;49.60;;;;;;10373422;28;1120;-73
2023/06/05 21:38:53;;;;;;;;;;;21.50;49.60;;;;;;10372830;28;738;-74
2023/06/05 21:43:48;;;;;;;;;;;21.50;49.60;;;;;;10372425;28;862;-73
2023/06/05 21:48:43;;;;;;;;;;;21.50;49.60;;;;;;10371210;28;1906;-74
2023/06/05 21:53:39;;;;;;;;;;;21.50;49.60;;;;;;10370720;28;871;-74
2023/06/05 21:58:34;;;;;;;;;;;21.50;49.60;;;;;;10371454;28;1192;-74
2023/06/05 22:03:30;;;;;;;;;;;21.50;49.60;;;;;;10369820;28;928;-74
2023/06/05 22:08:25;;;;;;;;;;;21.50;49.60;;;;;;10371075;28;1905;-74
2023/06/05 22:13:21;;;;;;;;;;;21.50;49.60;;;;;;10371215;28;920;-69
2023/06/05 22:18:17;;;;;;;;;;;21.50;49.70;;;;;;10371058;28;937;-73
2023/06/05 22:23:13;;;;;;;;;;;21.50;49.70;;;;;;10371477;28;770;-74
2023/06/05 22:28:08;;;;;;;;;;;21.50;49.70;;;;;;10370528;28;1906;-74
2023/06/05 22:33:04;;;;;;;;;;;21.50;49.60;;;;;;10370376;28;881;-72
2023/06/05 22:37:59;;;;;;;;;;;21.50;49.50;;;;;;10370160;28;1483;-73
2023/06/05 22:42:54;;;;;;;;;;;21.50;49.60;;;;;;10369448;28;976;-71
2023/06/05 22:47:52;;;;;;;;;;;21.50;49.60;;;;;;10370375;28;1910;-73
2023/06/05 22:52:50;;;;;;;;;;;21.50;49.50;;;;;;10370267;28;836;-74
2023/06/05 22:57:45;;;;;;;;;;;21.50;49.50;;;;;;10369526;28;864;-74
2023/06/05 23:02:40;;;;;;;;;;;21.50;49.40;;;;;;10369017;28;1026;-74
2023/06/05 23:07:36;;;;;;;;;;;21.40;49.40;;;;;;10369056;28;1910;-74
2023/06/05 23:12:31;;;;;;;;;;;21.50;49.50;;;;;;10369636;28;865;-74
2023/06/05 23:17:26;;;;;;;;;;;21.50;49.60;;;;;;10368099;28;1083;-74
2023/06/05 23:22:22;;;;;;;;;;;21.50;49.60;;;;;;10368550;28;776;-74
2023/06/05 23:27:17;;;;;;;;;;;21.50;49.50;;;;;;10369048;28;1886;-74
2023/06/05 23:32:12;;;;;;;;;;;21.40;49.40;;;;;;10369034;28;817;-74
2023/06/05 23:37:08;;;;;;;;;;;21.40;49.40;;;;;;10368224;28;1146;-74
2023/06/05 23:42:04;;;;;;;;;;;21.40;49.50;;;;;;10367800;28;887;-74
2023/06/05 23:46:59;;;;;;;;;;;21.40;49.40;;;;;;10367656;28;1909;-74
2023/06/05 23:51:54;;;;;;;;;;;21.50;49.50;;;;;;10367484;28;772;-74
2023/06/05 23:56:50;;;;;;;;;;;21.50;49.50;;;;;;10366700;28;1158;-74
